Time;durP1;ratioP1;P1;durP2;ratioP2;P2;SDS_P1;SDS_P2;PMS_P1;PMS_P2;Temp;Humidity;BMP_temperature;BMP_pressure;BME280_temperature;BME280_humidity;BME280_pressure;Samples;Min_cycle;Max_cycle;Signal;HPM_P1;HPM_P2
2023/06/19 00:02:14;;;;;;;0.40;0.40;;;19.10;99.90;;;;;;4399390;32;20109;-65
2023/06/19 00:04:39;;;;;;;0.77;0.68;;;19.00;99.90;;;;;;4400894;32;20178;-65
2023/06/19 00:07:05;;;;;;;0.93;0.52;;;19.00;99.90;;;;;;4398681;32;20078;-65
2023/06/19 00:09:31;;;;;;;0.57;0.57;;;19.00;99.90;;;;;;4398099;32;20480;-65
2023/06/19 00:11:58;;;;;;;13.95;0.85;;;18.90;99.90;;;;;;4395488;32;20145;-65
2023/06/19 00:14:24;;;;;;;0.50;0.50;;;18.90;99.90;;;;;;4396544;32;20519;-65
2023/06/19 00:16:50;;;;;;;0.70;0.70;;;18.80;99.90;;;;;;4395772;32;20098;-65
2023/06/19 00:19:17;;;;;;;0.73;0.65;;;18.80;99.90;;;;;;4397262;32;20137;-65
2023/06/19 00:21:42;;;;;;;1.00;0.90;;;18.80;99.90;;;;;;4397556;32;20110;-65
2023/06/19 00:24:09;;;;;;;1.17;0.60;;;18.80;99.90;;;;;;4394408;32;20066;-65
2023/06/19 00:26:34;;;;;;;1.02;0.85;;;18.80;99.90;;;;;;4398053;32;20142;-65
2023/06/19 00:29:00;;;;;;;0.73;0.62;;;18.90;99.90;;;;;;4400950;32;20093;-66
2023/06/19 00:31:27;;;;;;;2.37;1.10;;;19.00;99.90;;;;;;4401572;32;20814;-65
2023/06/19 00:33:52;;;;;;;0.60;0.60;;;19.10;99.90;;;;;;4400463;32;20066;-66
2023/06/19 00:36:23;;;;;;;1.80;0.98;;;19.00;99.90;;;;;;4397453;32;20086;-66
2023/06/19 00:38:48;;;;;;;0.52;0.52;;;19.00;99.90;;;;;;4397162;32;20078;-65
2023/06/19 00:41:16;;;;;;;1.12;0.80;;;19.00;99.90;;;;;;4396873;32;20086;-65
2023/06/19 00:43:42;;;;;;;1.37;0.77;;;19.00;99.90;;;;;;4400773;32;20444;-66
2023/06/19 00:46:07;;;;;;;1.75;0.90;;;19.10;99.90;;;;;;4401547;32;20090;-66
2023/06/19 00:48:34;;;;;;;0.50;0.50;;;19.20;99.90;;;;;;4397685;32;20082;-66
2023/06/19 00:51:00;;;;;;;0.55;0.52;;;19.20;99.90;;;;;;4398526;32;20106;-65
2023/06/19 00:53:26;;;;;;;2.75;0.68;;;19.20;99.90;;;;;;4398949;32;20066;-65
2023/06/19 00:55:53;;;;;;;0.50;0.50;;;19.20;99.90;;;;;;4401347;32;20086;-65
2023/06/19 00:58:20;;;;;;;0.60;0.60;;;19.20;99.90;;;;;;4401665;32;20107;-65
2023/06/19 01:00:46;;;;;;;0.43;0.43;;;19.10;99.90;;;;;;4400174;32;20077;-65
2023/06/19 01:03:12;;;;;;;3.12;1.40;;;19.10;99.90;;;;;;4397836;32;20090;-66
2023/06/19 01:05:37;;;;;;;3.25;1.35;;;19.00;99.90;;;;;;4401467;32;20098;-65
2023/06/19 01:08:10;;;;;;;0.50;0.50;;;18.90;99.90;;;;;;4397168;32;20059;-65
2023/06/19 01:10:43;;;;;;;2.53;0.62;;;18.90;99.90;;;;;;4385042;32;20496;-65
2023/06/19 01:13:17;;;;;;;3.60;0.80;;;18.80;99.90;;;;;;4398026;32;20086;-65
2023/06/19 01:15:43;;;;;;;0.70;0.70;;;19.00;99.90;;;;;;4397575;32;20086;-65
2023/06/19 01:18:11;;;;;;;0.57;0.57;;;18.90;99.90;;;;;;4397977;32;20066;-66
2023/06/19 01:20:37;;;;;;;2.10;1.17;;;18.90;99.90;;;;;;4396522;32;20305;-65
2023/06/19 01:23:11;;;;;;;0.90;0.68;;;19.00;99.90;;;;;;4396178;32;20447;-66
2023/06/19 01:25:37;;;;;;;0.80;0.73;;;18.90;99.90;;;;;;4397535;32;20070;-65
2023/06/19 01:28:05;;;;;;;0.62;0.60;;;18.90;99.90;;;;;;4397803;32;20845;-65
2023/06/19 01:30:31;;;;;;;0.68;0.62;;;18.80;99.90;;;;;;4398516;32;20176;-66
2023/06/19 01:33:03;;;;;;;2.00;0.77;;;18.70;99.90;;;;;;4399311;32;20082;-65
2023/06/19 01:35:34;;;;;;;0.80;0.80;;;18.70;99.90;;;;;;4395475;32;20094;-65
2023/06/19 01:38:01;;;;;;;0.75;0.70;;;18.60;99.90;;;;;;4395645;32;20233;-65
2023/06/19 01:40:31;;;;;;;1.92;1.10;;;18.70;99.90;;;;;;4395888;32;20093;-65
2023/06/19 01:42:59;;;;;;;0.63;0.63;;;18.70;99.90;;;;;;4396248;32;20157;-65
2023/06/19 01:45:24;;;;;;;2.62;1.00;;;18.80;99.90;;;;;;4398227;32;20118;-65
2023/06/19 01:47:50;;;;;;;2.65;0.85;;;18.70;99.90;;;;;;4396304;32;20058;-65
2023/06/19 01:50:16;;;;;;;1.58;0.73;;;18.70;99.90;;;;;;4395772;32;20062;-65
2023/06/19 01:52:41;;;;;;;1.30;0.62;;;18.60;99.90;;;;;;4396362;32;20105;-65
2023/06/19 01:55:07;;;;;;;0.93;0.57;;;18.60;99.90;;;;;;4396294;32;20094;-64
2023/06/19 01:57:33;;;;;;;0.73;0.70;;;18.60;99.90;;;;;;4396561;32;20093;-64
2023/06/19 01:59:58;;;;;;;0.30;0.30;;;18.60;99.90;;;;;;4394404;32;20067;-65
2023/06/19 02:02:24;;;;;;;0.82;0.80;;;18.50;99.90;;;;;;4392045;32;20089;-65
2023/06/19 02:04:49;;;;;;;0.95;0.77;;;18.60;99.90;;;;;;4386806;32;20083;-65
2023/06/19 02:07:15;;;;;;;0.95;0.82;;;18.50;99.90;;;;;;4393186;32;20121;-65
2023/06/19 02:09:41;;;;;;;6.93;1.42;;;18.50;99.90;;;;;;4399848;32;20110;-65
2023/06/19 02:12:07;;;;;;;2.20;1.10;;;18.50;99.90;;;;;;4396062;32;20062;-64
2023/06/19 02:14:32;;;;;;;1.65;0.85;;;18.40;99.90;;;;;;4397780;32;20066;-65
2023/06/19 02:16:58;;;;;;;0.82;0.60;;;18.30;99.90;;;;;;4396059;32;20130;-65
2023/06/19 02:19:23;;;;;;;0.70;0.70;;;18.20;99.90;;;;;;4398472;32;20082;-65
2023/06/19 02:21:49;;;;;;;0.52;0.52;;;18.20;99.90;;;;;;4396067;32;20074;-65
2023/06/19 02:24:14;;;;;;;1.40;1.00;;;18.20;99.90;;;;;;4400044;32;20858;-65
2023/06/19 02:26:40;;;;;;;4.12;0.80;;;18.20;99.90;;;;;;4396478;32;20125;-65
2023/06/19 02:29:05;;;;;;;0.65;0.65;;;18.20;99.90;;;;;;4396482;32;20070;-65
2023/06/19 02:31:31;;;;;;;1.02;0.93;;;18.30;99.90;;;;;;4397577;32;20217;-65
2023/06/19 02:33:56;;;;;;;2.50;0.90;;;18.30;99.90;;;;;;4397181;32;20078;-65
2023/06/19 02:36:22;;;;;;;0.70;0.70;;;18.20;99.90;;;;;;4396707;32;20479;-65
2023/06/19 02:38:48;;;;;;;0.70;0.70;;;18.10;99.90;;;;;;4398207;32;20125;-65
2023/06/19 02:41:14;;;;;;;0.60;0.60;;;18.10;99.90;;;;;;4393807;32;20095;-65
2023/06/19 02:43:42;;;;;;;0.65;0.65;;;18.00;99.90;;;;;;4395074;32;20097;-65
2023/06/19 02:46:07;;;;;;;0.70;0.70;;;17.90;99.90;;;;;;4392656;32;20086;-65
2023/06/19 02:48:33;;;;;;;3.42;1.00;;;18.00;99.90;;;;;;4395061;32;20090;-64
2023/06/19 02:50:59;;;;;;;0.90;0.90;;;18.00;99.90;;;;;;4394730;32;20102;-65
2023/06/19 02:53:24;;;;;;;1.05;0.80;;;18.00;99.90;;;;;;4398019;32;20062;-65
2023/06/19 02:55:50;;;;;;;1.85;0.82;;;18.10;99.90;;;;;;4397083;32;20144;-65
2023/06/19 02:58:15;;;;;;;0.60;0.60;;;18.20;99.90;;;;;;4394598;32;20150;-65
2023/06/19 03:00:41;;;;;;;1.20;0.70;;;18.10;99.90;;;;;;4393860;32;20133;-65
2023/06/19 03:03:06;;;;;;;1.62;1.02;;;18.10;99.90;;;;;;4394705;32;20137;-65
2023/06/19 03:05:32;;;;;;;0.62;0.62;;;18.10;99.90;;;;;;4394510;32;20077;-65
2023/06/19 03:07:57;;;;;;;1.05;0.80;;;18.10;99.90;;;;;;4393317;32;20434;-65
2023/06/19 03:10:22;;;;;;;5.25;1.15;;;18.10;99.90;;;;;;4394325;32;20071;-65
2023/06/19 03:12:48;;;;;;;0.90;0.70;;;18.20;99.90;;;;;;4392272;32;20093;-65
2023/06/19 03:15:14;;;;;;;0.95;0.70;;;18.20;99.90;;;;;;4395375;32;20506;-65
2023/06/19 03:17:39;;;;;;;2.42;0.73;;;18.20;99.90;;;;;;4394784;32;20067;-65
2023/06/19 03:20:05;;;;;;;0.60;0.60;;;18.20;99.90;;;;;;4393340;32;20110;-65
2023/06/19 03:22:31;;;;;;;0.65;0.65;;;18.20;99.90;;;;;;4393049;32;20082;-65
2023/06/19 03:24:57;;;;;;;0.98;0.73;;;18.20;99.90;;;;;;4393196;32;20466;-65
2023/06/19 03:27:24;;;;;;;0.62;0.62;;;18.30;99.90;;;;;;4395343;32;20438;-65
2023/06/19 03:29:50;;;;;;;0.50;0.50;;;18.30;99.90;;;;;;4397574;32;20066;-65
2023/06/19 03:32:15;;;;;;;1.80;1.25;;;18.30;99.90;;;;;;4399345;32;20095;-65
2023/06/19 03:34:42;;;;;;;1.10;0.73;;;18.20;99.90;;;;;;4396439;32;20078;-65
2023/06/19 03:37:07;;;;;;;1.12;0.75;;;18.20;99.90;;;;;;4396841;32;20094;-65
2023/06/19 03:39:33;;;;;;;5.70;1.50;;;18.30;99.90;;;;;;4398984;32;20119;-65
2023/06/19 03:41:58;;;;;;;1.90;0.85;;;18.40;99.90;;;;;;4397192;32;20145;-65
2023/06/19 03:44:24;;;;;;;1.45;0.80;;;18.50;99.90;;;;;;4396677;32;20117;-66
2023/06/19 03:46:51;;;;;;;1.52;1.20;;;18.50;99.90;;;;;;4397657;32;20066;-65
2023/06/19 03:49:17;;;;;;;2.20;1.17;;;18.50;99.90;;;;;;4399352;32;20062;-65
2023/06/19 03:51:42;;;;;;;3.72;1.30;;;18.60;99.90;;;;;;4397206;32;20078;-65
2023/06/19 03:54:08;;;;;;;1.15;0.80;;;18.60;99.90;;;;;;4398137;32;20085;-65
2023/06/19 03:56:33;;;;;;;0.50;0.50;;;18.60;99.90;;;;;;4398753;32;20102;-65
2023/06/19 03:58:58;;;;;;;2.97;0.60;;;18.60;99.90;;;;;;4398027;32;20074;-65
2023/06/19 04:01:24;;;;;;;0.68;0.68;;;18.60;99.90;;;;;;4396206;32;20101;-65
2023/06/19 04:03:49;;;;;;;0.88;0.82;;;18.50;99.90;;;;;;4397534;32;20531;-65
2023/06/19 04:06:15;;;;;;;1.75;0.95;;;18.60;99.90;;;;;;4395675;32;20114;-65
2023/06/19 04:08:40;;;;;;;0.70;0.70;;;18.60;99.90;;;;;;4396596;32;20137;-65
2023/06/19 04:11:06;;;;;;;0.82;0.80;;;18.70;99.90;;;;;;4398004;32;20094;-65
2023/06/19 04:13:31;;;;;;;1.65;0.65;;;18.70;99.90;;;;;;4398842;32;20085;-65
2023/06/19 04:15:57;;;;;;;0.60;0.60;;;18.70;99.90;;;;;;4397174;32;20062;-65
2023/06/19 04:18:22;;;;;;;1.02;0.90;;;18.80;99.90;;;;;;4397119;32;20424;-65
2023/06/19 04:20:48;;;;;;;1.55;0.88;;;18.80;99.90;;;;;;4394725;32;20087;-65
2023/06/19 04:23:13;;;;;;;1.40;0.55;;;18.90;99.90;;;;;;4392658;32;20133;-65
2023/06/19 04:25:39;;;;;;;1.95;1.02;;;18.90;99.90;;;;;;4395948;32;20102;-65
2023/06/19 04:28:04;;;;;;;0.80;0.80;;;18.90;99.90;;;;;;4396879;32;20121;-65
2023/06/19 04:30:30;;;;;;;2.05;1.05;;;19.00;99.90;;;;;;4393546;32;20479;-65
2023/06/19 04:32:57;;;;;;;0.88;0.60;;;19.10;99.90;;;;;;4395558;32;20065;-65
2023/06/19 04:35:23;;;;;;;0.93;0.93;;;19.00;99.90;;;;;;4396061;32;20105;-65
2023/06/19 04:37:49;;;;;;;1.17;0.65;;;18.90;99.90;;;;;;4394731;32;20191;-65
2023/06/19 04:40:16;;;;;;;2.17;1.17;;;18.90;99.90;;;;;;4399730;32;20102;-65
2023/06/19 04:42:41;;;;;;;1.00;0.70;;;18.90;99.90;;;;;;4400112;32;20446;-65
2023/06/19 04:45:07;;;;;;;0.95;0.93;;;19.00;99.90;;;;;;4399528;32;20102;-65
2023/06/19 04:47:33;;;;;;;2.72;1.37;;;19.10;99.90;;;;;;4396361;32;20110;-65
2023/06/19 04:49:59;;;;;;;0.60;0.55;;;19.10;99.90;;;;;;4397711;32;20063;-65
2023/06/19 04:52:25;;;;;;;1.30;0.77;;;19.10;99.90;;;;;;4398687;32;20094;-65
2023/06/19 04:54:50;;;;;;;1.08;0.73;;;19.10;99.90;;;;;;4394419;32;20225;-65
2023/06/19 04:57:16;;;;;;;1.02;0.75;;;19.10;99.90;;;;;;4397773;32;20089;-65
2023/06/19 04:59:43;;;;;;;0.70;0.70;;;19.10;99.90;;;;;;4396684;32;20368;-65
2023/06/19 05:02:10;;;;;;;0.80;0.80;;;19.10;99.90;;;;;;4391603;32;20086;-65
2023/06/19 05:04:35;;;;;;;1.12;1.00;;;19.10;99.90;;;;;;4391398;32;20077;-65
2023/06/19 05:07:01;;;;;;;0.68;0.60;;;19.10;99.90;;;;;;4391881;32;20196;-65
2023/06/19 05:09:27;;;;;;;0.60;0.60;;;19.10;99.90;;;;;;4392369;32;20133;-65
2023/06/19 05:11:52;;;;;;;1.60;0.90;;;19.20;99.90;;;;;;4387029;32;20082;-65
2023/06/19 05:14:18;;;;;;;0.73;0.73;;;19.10;99.90;;;;;;4388461;32;20102;-65
2023/06/19 05:16:44;;;;;;;0.65;0.65;;;19.10;99.90;;;;;;4387162;32;20589;-65
2023/06/19 05:19:09;;;;;;;0.80;0.80;;;19.00;99.90;;;;;;4380946;32;20085;-64
2023/06/19 05:21:35;;;;;;;0.70;0.70;;;19.00;99.90;;;;;;4392687;32;20073;-65
2023/06/19 05:24:01;;;;;;;0.57;0.57;;;19.00;99.90;;;;;;4396874;32;20120;-65
2023/06/19 05:26:27;;;;;;;0.52;0.52;;;19.00;99.90;;;;;;4387787;32;20125;-65
2023/06/19 05:28:53;;;;;;;1.20;0.93;;;19.00;99.90;;;;;;4387774;32;20118;-65
2023/06/19 05:31:18;;;;;;;0.88;0.88;;;19.00;99.90;;;;;;4374993;32;20467;-65
2023/06/19 05:33:44;;;;;;;0.55;0.55;;;19.00;99.90;;;;;;4391808;32;20106;-64
2023/06/19 05:38:40;;;;;;;1.37;0.90;;;19.20;99.90;;;;;;4405438;32;20371;-74
2023/06/19 05:41:06;;;;;;;0.60;0.60;;;19.20;99.90;;;;;;4411042;32;20077;-73
2023/06/19 05:43:32;;;;;;;1.58;0.82;;;19.30;99.90;;;;;;4412957;32;20418;-74
2023/06/19 05:45:59;;;;;;;4.05;0.90;;;19.30;99.90;;;;;;4397866;32;20085;-73
2023/06/19 05:48:27;;;;;;;0.82;0.80;;;19.40;99.90;;;;;;4395917;32;20086;-74
2023/06/19 05:50:52;;;;;;;0.57;0.57;;;19.40;99.90;;;;;;4397872;32;20183;-74
2023/06/19 05:53:18;;;;;;;0.65;0.65;;;19.50;99.90;;;;;;4395000;32;20070;-73
2023/06/19 05:55:43;;;;;;;0.80;0.62;;;19.60;99.90;;;;;;4393140;32;20137;-75
2023/06/19 05:58:09;;;;;;;0.60;0.60;;;19.60;99.90;;;;;;4385576;32;20299;-74
2023/06/19 06:00:35;;;;;;;2.25;0.73;;;19.70;99.90;;;;;;4385350;32;20062;-75
2023/06/19 06:03:01;;;;;;;1.75;0.88;;;19.70;99.90;;;;;;4379169;32;20142;-74
2023/06/19 06:05:26;;;;;;;1.45;0.90;;;19.70;99.90;;;;;;4375715;32;20101;-75
2023/06/19 06:07:53;;;;;;;2.95;1.00;;;19.80;99.90;;;;;;4381613;32;20110;-75
2023/06/19 06:10:20;;;;;;;3.97;1.67;;;19.80;99.90;;;;;;4370542;32;20187;-74
2023/06/19 06:12:46;;;;;;;0.57;0.57;;;19.80;99.90;;;;;;4372955;32;20227;-74
2023/06/19 06:15:11;;;;;;;2.42;1.48;;;19.90;99.90;;;;;;4379703;32;20090;-74
2023/06/19 06:17:37;;;;;;;5.35;0.80;;;20.00;99.90;;;;;;4384245;32;20952;-74
2023/06/19 06:20:09;;;;;;;2.05;0.85;;;20.00;99.90;;;;;;4372034;32;20078;-74
2023/06/19 06:22:34;;;;;;;0.68;0.65;;;20.00;99.90;;;;;;4374610;32;20094;-74
2023/06/19 06:25:00;;;;;;;0.55;0.55;;;20.00;99.90;;;;;;4382953;32;20132;-73
2023/06/19 06:27:26;;;;;;;1.15;0.88;;;20.20;99.90;;;;;;4375382;32;20338;-74
2023/06/19 06:29:51;;;;;;;1.02;0.80;;;20.20;99.90;;;;;;4380870;32;20190;-74
2023/06/19 06:32:18;;;;;;;1.77;0.98;;;20.20;99.90;;;;;;4372901;32;20227;-74
2023/06/19 06:34:43;;;;;;;1.20;0.80;;;20.20;99.90;;;;;;4378928;32;21110;-73
2023/06/19 06:37:09;;;;;;;1.30;1.02;;;20.20;99.90;;;;;;4383368;32;20148;-74
2023/06/19 06:39:34;;;;;;;1.27;0.98;;;20.20;99.90;;;;;;4377198;32;20089;-74
2023/06/19 06:42:00;;;;;;;1.62;0.82;;;20.30;99.90;;;;;;4375394;32;20078;-74
2023/06/19 06:44:26;;;;;;;0.82;0.82;;;20.40;99.90;;;;;;4375799;32;20333;-76
2023/06/19 06:46:51;;;;;;;1.52;1.00;;;20.30;99.90;;;;;;4375717;32;20651;-74
2023/06/19 06:49:17;;;;;;;0.98;0.80;;;20.30;99.90;;;;;;4382823;32;20108;-74
2023/06/19 06:51:42;;;;;;;1.55;1.25;;;20.30;99.90;;;;;;4375101;32;20101;-74
2023/06/19 06:54:08;;;;;;;0.70;0.70;;;20.40;99.90;;;;;;4374804;32;20215;-74
2023/06/19 06:56:33;;;;;;;1.15;1.02;;;20.50;99.90;;;;;;4375384;32;20511;-74
2023/06/19 06:58:59;;;;;;;0.68;0.68;;;20.50;99.90;;;;;;4376439;32;20640;-74
2023/06/19 07:01:24;;;;;;;0.43;0.43;;;20.60;99.90;;;;;;4384502;32;20986;-74
2023/06/19 07:03:49;;;;;;;1.25;0.70;;;20.70;99.90;;;;;;4377635;32;20086;-76
2023/06/19 07:06:15;;;;;;;0.73;0.73;;;20.70;99.90;;;;;;4381846;32;21845;-74
2023/06/19 07:08:40;;;;;;;3.12;1.23;;;20.80;99.90;;;;;;4385415;32;20562;-76
2023/06/19 07:11:07;;;;;;;0.52;0.52;;;20.80;99.90;;;;;;4382070;32;20829;-76
2023/06/19 07:13:33;;;;;;;2.95;0.68;;;20.80;99.90;;;;;;4380495;32;20136;-73
2023/06/19 07:15:59;;;;;;;1.55;0.80;;;20.80;99.90;;;;;;4378327;32;21270;-75
2023/06/19 07:18:25;;;;;;;0.50;0.50;;;20.90;99.90;;;;;;4373947;32;21310;-74
2023/06/19 07:20:50;;;;;;;1.95;1.25;;;21.00;99.90;;;;;;4383437;32;20094;-77
2023/06/19 07:23:16;;;;;;;1.87;1.20;;;21.10;99.90;;;;;;4380281;32;20276;-74
2023/06/19 07:25:42;;;;;;;1.70;0.70;;;21.10;99.90;;;;;;4380047;32;20097;-75
2023/06/19 07:28:08;;;;;;;0.85;0.70;;;21.20;99.90;;;;;;4383483;32;20119;-77
2023/06/19 07:30:34;;;;;;;3.17;1.05;;;21.30;99.90;;;;;;4378269;32;20110;-77
2023/06/19 07:32:59;;;;;;;4.15;1.90;;;21.30;99.90;;;;;;4370633;32;20102;-74
2023/06/19 07:35:25;;;;;;;2.80;1.48;;;21.40;99.90;;;;;;4380409;32;20122;-76
2023/06/19 07:37:50;;;;;;;5.37;1.85;;;21.50;99.90;;;;;;4379805;32;20090;-75
2023/06/19 07:40:16;;;;;;;1.58;0.75;;;21.60;99.90;;;;;;4380227;32;20617;-76
2023/06/19 07:42:42;;;;;;;0.90;0.90;;;21.60;99.90;;;;;;4385260;32;20152;-75
2023/06/19 07:45:08;;;;;;;0.50;0.50;;;21.80;99.90;;;;;;4379954;32;20093;-76
2023/06/19 07:47:33;;;;;;;0.50;0.50;;;21.90;99.90;;;;;;4376518;32;21302;-76
2023/06/19 07:49:59;;;;;;;2.75;0.82;;;21.90;99.90;;;;;;4359849;32;20140;-78
2023/06/19 07:52:24;;;;;;;1.50;0.93;;;22.10;99.90;;;;;;4364598;32;20097;-76
2023/06/19 07:54:54;;;;;;;0.75;0.70;;;22.10;99.90;;;;;;4374388;32;20098;-77
2023/06/19 07:57:20;;;;;;;0.62;0.62;;;22.20;99.90;;;;;;4373965;32;20422;-76
2023/06/19 07:59:47;;;;;;;0.65;0.57;;;22.40;99.90;;;;;;4363256;32;20074;-73
2023/06/19 08:02:12;;;;;;;0.45;0.45;;;22.40;99.90;;;;;;4380644;32;20176;-76
2023/06/19 08:04:38;;;;;;;0.85;0.50;;;22.50;99.90;;;;;;4364484;32;20347;-75
2023/06/19 08:07:04;;;;;;;0.40;0.40;;;22.60;99.90;;;;;;4366748;32;20161;-75
2023/06/19 08:09:29;;;;;;;0.77;0.60;;;22.50;99.90;;;;;;4370348;32;20153;-76
2023/06/19 08:11:55;;;;;;;0.80;0.80;;;22.50;99.90;;;;;;4358647;32;20105;-76
2023/06/19 08:14:20;;;;;;;1.20;0.73;;;22.60;99.90;;;;;;4377513;32;20230;-76
2023/06/19 08:16:47;;;;;;;1.65;0.80;;;22.60;99.90;;;;;;4376019;32;20131;-77
2023/06/19 08:19:12;;;;;;;0.73;0.68;;;22.60;99.90;;;;;;4373952;32;20320;-74
2023/06/19 08:21:38;;;;;;;1.25;0.52;;;22.60;99.90;;;;;;4371492;32;20138;-77
2023/06/19 08:24:03;;;;;;;0.88;0.75;;;22.60;99.90;;;;;;4362290;32;20769;-76
2023/06/19 08:26:29;;;;;;;0.80;0.65;;;22.60;99.90;;;;;;4370514;32;20221;-78
2023/06/19 08:28:56;;;;;;;0.62;0.60;;;22.60;99.90;;;;;;4378816;32;20086;-77
2023/06/19 08:31:27;;;;;;;0.55;0.55;;;22.60;99.90;;;;;;4385284;32;20074;-77
2023/06/19 08:33:53;;;;;;;2.83;0.95;;;22.50;99.90;;;;;;4369262;32;20113;-76
2023/06/19 08:36:18;;;;;;;1.10;1.00;;;22.60;99.90;;;;;;4372021;32;20082;-75
2023/06/19 08:38:44;;;;;;;0.62;0.62;;;22.60;99.90;;;;;;4366713;32;20118;-76
2023/06/19 08:41:10;;;;;;;1.17;0.90;;;22.60;99.90;;;;;;4363110;32;20896;-75
2023/06/19 08:43:35;;;;;;;1.75;0.70;;;22.70;99.90;;;;;;4366894;32;20106;-75
2023/06/19 08:46:18;;;;;;;1.00;0.80;;;22.80;99.90;;;;;;4380410;32;20365;-75
2023/06/19 08:48:43;;;;;;;0.45;0.45;;;22.90;99.90;;;;;;4351844;32;20407;-75
2023/06/19 08:51:10;;;;;;;1.75;0.95;;;22.90;99.90;;;;;;4364894;32;21224;-76
2023/06/19 08:53:46;;;;;;;10.20;1.20;;;23.00;99.90;;;;;;4371074;32;20276;-77
2023/06/19 08:56:11;;;;;;;0.68;0.68;;;23.10;99.90;;;;;;4379555;32;20192;-77
2023/06/19 08:58:37;;;;;;;0.60;0.60;;;23.20;99.90;;;;;;4369662;32;20785;-76
2023/06/19 09:01:03;;;;;;;0.93;0.47;;;23.20;99.90;;;;;;4362746;32;20568;-74
2023/06/19 09:03:28;;;;;;;4.00;0.57;;;23.20;99.90;;;;;;4376282;32;20081;-74
2023/06/19 09:05:54;;;;;;;3.28;1.12;;;23.20;99.90;;;;;;4369703;32;20089;-75
2023/06/19 09:08:21;;;;;;;0.70;0.70;;;23.30;99.90;;;;;;4374650;32;20101;-76
2023/06/19 09:10:59;;;;;;;0.68;0.55;;;23.30;99.90;;;;;;4375711;32;20589;-76
2023/06/19 09:13:24;;;;;;;0.82;0.57;;;23.30;99.90;;;;;;4375444;32;21420;-74
2023/06/19 09:15:59;;;;;;;0.90;0.75;;;23.40;99.90;;;;;;4375107;32;20212;-76
2023/06/19 09:18:25;;;;;;;2.42;0.75;;;23.40;99.90;;;;;;4378109;32;20312;-74
2023/06/19 09:20:53;;;;;;;0.62;0.45;;;23.40;99.90;;;;;;4359659;32;20113;-76
2023/06/19 09:23:19;;;;;;;1.17;0.80;;;23.40;99.90;;;;;;4370429;32;22066;-75
2023/06/19 09:25:47;;;;;;;1.08;0.55;;;23.40;99.90;;;;;;4370594;32;20125;-74
2023/06/19 09:28:20;;;;;;;1.67;1.27;;;23.40;99.90;;;;;;4372598;32;20140;-74
2023/06/19 09:31:02;;;;;;;0.93;0.60;;;23.30;99.90;;;;;;4363649;32;20540;-75
2023/06/19 09:33:29;;;;;;;0.30;0.30;;;23.30;99.90;;;;;;4375362;32;20140;-74
2023/06/19 09:35:56;;;;;;;2.53;0.80;;;23.40;99.90;;;;;;4374946;32;20117;-74
2023/06/19 09:38:27;;;;;;;2.83;1.20;;;23.50;99.90;;;;;;4377515;32;20086;-75
2023/06/19 09:40:53;;;;;;;0.77;0.77;;;23.50;99.90;;;;;;4364686;32;20122;-75
2023/06/19 09:43:24;;;;;;;0.70;0.70;;;23.40;99.90;;;;;;4372506;32;20097;-76
2023/06/19 09:45:50;;;;;;;0.77;0.75;;;23.30;99.90;;;;;;4376483;32;20086;-74
2023/06/19 09:48:20;;;;;;;0.62;0.60;;;23.30;99.90;;;;;;4373715;32;20551;-74
2023/06/19 09:50:50;;;;;;;0.68;0.68;;;23.40;99.90;;;;;;4367153;32;20105;-77
2023/06/19 09:53:17;;;;;;;0.35;0.35;;;23.50;99.90;;;;;;4371370;32;20495;-74
2023/06/19 09:55:42;;;;;;;0.82;0.80;;;23.50;99.90;;;;;;4374425;32;20098;-74
2023/06/19 09:58:09;;;;;;;0.93;0.70;;;23.60;99.90;;;;;;4368494;32;20162;-74
2023/06/19 10:00:37;;;;;;;1.70;0.60;;;23.60;99.90;;;;;;4374672;32;20549;-74
2023/06/19 10:03:04;;;;;;;1.08;0.55;;;23.60;99.90;;;;;;4377551;32;20727;-74
2023/06/19 10:05:33;;;;;;;0.70;0.70;;;23.60;99.90;;;;;;4372451;32;20470;-75
2023/06/19 10:07:59;;;;;;;0.20;0.20;;;23.70;99.90;;;;;;4380398;32;20066;-76
2023/06/19 10:10:27;;;;;;;1.50;0.82;;;23.70;99.90;;;;;;4375223;32;20588;-75
2023/06/19 10:12:57;;;;;;;4.00;0.62;;;23.70;99.90;;;;;;4379454;32;20085;-75
2023/06/19 10:15:25;;;;;;;1.00;0.90;;;23.70;99.90;;;;;;4381214;32;21843;-75
2023/06/19 10:17:52;;;;;;;0.60;0.60;;;23.70;99.90;;;;;;4375965;32;20093;-75
2023/06/19 10:20:38;;;;;;;0.77;0.60;;;23.80;99.90;;;;;;4383900;32;20113;-75
2023/06/19 10:23:05;;;;;;;1.10;0.93;;;23.80;99.90;;;;;;4383396;32;20966;-75
2023/06/19 10:25:35;;;;;;;1.95;0.60;;;23.90;99.90;;;;;;4370982;32;20430;-76
2023/06/19 10:28:01;;;;;;;0.60;0.60;;;24.00;99.90;;;;;;4385855;32;20082;-75
2023/06/19 10:30:27;;;;;;;0.70;0.60;;;24.10;99.90;;;;;;4391343;32;20085;-74
2023/06/19 10:32:53;;;;;;;1.55;0.75;;;24.10;99.90;;;;;;4380980;32;20521;-74
2023/06/19 10:35:23;;;;;;;0.70;0.70;;;24.30;99.90;;;;;;4379241;32;20621;-74
2023/06/19 10:37:50;;;;;;;;;;;24.40;99.90;;;;;;4379397;32;20089;-73
2023/06/19 10:40:15;;;;;;;2.37;0.60;;;24.50;99.90;;;;;;4383529;32;19961;-74
2023/06/19 10:42:41;;;;;;;4.10;1.40;;;24.70;99.90;;;;;;4386515;32;20505;-76
2023/06/19 10:45:09;;;;;;;0.60;0.60;;;24.80;99.90;;;;;;4382836;32;20813;-74
2023/06/19 10:47:35;;;;;;;1.05;0.50;;;24.90;99.90;;;;;;4388604;32;20720;-74
2023/06/19 10:50:02;;;;;;;2.37;1.00;;;24.90;99.90;;;;;;4380623;32;20057;-73
2023/06/19 10:52:29;;;;;;;0.40;0.40;;;24.90;99.90;;;;;;4374195;32;21164;-76
2023/06/19 10:54:55;;;;;;;0.40;0.40;;;25.00;99.90;;;;;;4375664;32;20082;-75
2023/06/19 10:57:36;;;;;;;0.80;0.50;;;25.00;99.90;;;;;;4374548;32;20081;-76
2023/06/19 11:00:11;;;;;;;0.68;0.60;;;25.00;99.90;;;;;;4361286;32;20791;-77
2023/06/19 11:02:39;;;;;;;1.35;1.00;;;25.00;99.90;;;;;;4387931;32;20089;-81
2023/06/19 11:05:05;;;;;;;0.40;0.40;;;24.90;99.90;;;;;;4384115;32;20179;-79
2023/06/19 11:07:32;;;;;;;0.82;0.70;;;24.80;99.90;;;;;;4400378;32;20200;-83
2023/06/19 11:09:58;;;;;;;1.42;0.50;;;24.80;99.90;;;;;;4397161;32;20078;-81
2023/06/19 11:12:23;;;;;;;0.60;0.45;;;24.70;99.90;;;;;;4400138;32;20409;-82
2023/06/19 11:14:49;;;;;;;0.98;0.75;;;24.70;99.90;;;;;;4392422;32;20517;-81
2023/06/19 11:17:16;;;;;;;0.47;0.47;;;24.70;99.90;;;;;;4380128;32;20109;-79
2023/06/19 11:19:43;;;;;;;1.17;0.80;;;24.60;99.90;;;;;;4389594;32;20237;-79
2023/06/19 11:22:09;;;;;;;0.55;0.40;;;24.70;99.90;;;;;;4382154;32;21063;-83
2023/06/19 11:24:34;;;;;;;0.55;0.55;;;24.70;99.90;;;;;;4383873;32;20118;-79
2023/06/19 11:27:00;;;;;;;0.62;0.62;;;24.80;99.90;;;;;;4383800;32;20089;-80
2023/06/19 11:29:30;;;;;;;1.08;0.55;;;24.80;99.90;;;;;;4375913;32;20925;-79
2023/06/19 11:32:07;;;;;;;0.62;0.30;;;24.80;99.90;;;;;;4374365;32;20116;-80
2023/06/19 11:34:36;;;;;;;0.82;0.73;;;24.90;99.90;;;;;;4386983;32;20086;-79
2023/06/19 11:37:11;;;;;;;0.73;0.70;;;25.00;99.90;;;;;;4395809;32;20066;-80
2023/06/19 11:39:37;;;;;;;0.57;0.45;;;25.00;99.90;;;;;;4392045;32;20070;-79
2023/06/19 11:42:03;;;;;;;0.32;0.32;;;25.00;99.90;;;;;;4368331;32;20122;-78
2023/06/19 11:44:28;;;;;;;0.40;0.40;;;25.20;99.90;;;;;;4375481;32;20228;-78
2023/06/19 11:46:58;;;;;;;0.35;0.35;;;25.30;99.90;;;;;;4378458;32;105138;-79
2023/06/19 11:49:24;;;;;;;0.50;0.50;;;25.40;99.90;;;;;;4384138;32;20097;-77
2023/06/19 11:51:50;;;;;;;0.47;0.43;;;25.60;99.90;;;;;;4386929;32;20177;-78
2023/06/19 11:54:16;;;;;;;0.62;0.60;;;25.60;99.90;;;;;;4386093;32;20857;-77
2023/06/19 11:56:41;;;;;;;0.85;0.70;;;25.80;99.90;;;;;;4384549;32;20073;-76
2023/06/19 11:59:08;;;;;;;0.98;0.50;;;25.90;99.90;;;;;;4380970;32;20101;-78
2023/06/19 12:01:34;;;;;;;0.40;0.30;;;26.00;99.90;;;;;;4387017;32;20101;-79
2023/06/19 12:04:01;;;;;;;0.80;0.40;;;26.00;99.90;;;;;;4386263;32;21000;-78
2023/06/19 12:06:27;;;;;;;0.88;0.40;;;26.20;99.90;;;;;;4386541;32;20076;-77
2023/06/19 12:08:52;;;;;;;1.00;0.85;;;26.30;99.90;;;;;;4382746;32;20069;-77
2023/06/19 12:11:18;;;;;;;1.10;0.40;;;26.40;99.90;;;;;;4384627;32;20786;-77
2023/06/19 12:13:44;;;;;;;0.32;0.30;;;26.70;99.90;;;;;;4382243;32;20156;-78
2023/06/19 12:16:11;;;;;;;0.93;0.75;;;26.80;99.90;;;;;;4385203;32;21729;-79
2023/06/19 12:18:37;;;;;;;1.02;0.62;;;27.30;99.90;;;;;;4392892;32;20070;-82
2023/06/19 12:21:04;;;;;;;0.88;0.40;;;27.70;99.90;;;;;;4380302;32;20951;-81
2023/06/19 12:23:29;;;;;;;0.98;0.65;;;28.20;99.90;;;;;;4389022;32;20090;-79
2023/06/19 12:25:55;;;;;;;0.85;0.62;;;28.80;99.90;;;;;;4379750;32;20097;-78
2023/06/19 12:28:22;;;;;;;1.20;0.62;;;29.10;99.40;;;;;;4374387;32;20184;-78
2023/06/19 12:30:51;;;;;;;0.30;0.30;;;29.20;98.30;;;;;;4379819;32;20344;-78
2023/06/19 12:33:17;;;;;;;0.52;0.52;;;29.60;98.20;;;;;;4380970;32;20106;-78
2023/06/19 12:35:43;;;;;;;0.37;0.37;;;30.00;97.90;;;;;;4392573;32;20260;-76
2023/06/19 12:38:09;;;;;;;1.02;0.57;;;30.30;96.90;;;;;;4395818;32;20122;-78
2023/06/19 12:40:35;;;;;;;0.30;0.30;;;30.80;95.50;;;;;;4395682;32;20078;-78
2023/06/19 12:43:02;;;;;;;0.65;0.47;;;30.80;94.40;;;;;;4397573;32;20077;-77
2023/06/19 12:45:27;;;;;;;0.55;0.45;;;30.90;94.60;;;;;;4398590;32;20188;-80
2023/06/19 12:47:53;;;;;;;0.45;0.45;;;30.50;95.10;;;;;;4400937;32;20097;-80